Time;durP1;ratioP1;P1;durP2;ratioP2;P2;SDS_P1;SDS_P2;PMS_P1;PMS_P2;Temp;Humidity;BMP_temperature;BMP_pressure;BME280_temperature;BME280_humidity;BME280_pressure;Samples;Min_cycle;Max_cycle;Signal;HPM_P1;HPM_P2
2023/08/05 00:01:19;;;;;;;3.13;1.23;;;;;;;22.41;53.47;101641.97;5019266;28;20025;-71
2023/08/05 00:03:44;;;;;;;3.73;1.37;;;;;;;22.40;53.02;101633.16;5003378;28;20119;-68
2023/08/05 00:06:12;;;;;;;3.53;1.60;;;;;;;22.41;53.32;101634.00;5003385;28;20274;-71
2023/08/05 00:08:38;;;;;;;3.58;1.67;;;;;;;22.40;53.20;101632.34;5003221;28;20115;-69
2023/08/05 00:11:03;;;;;;;3.00;1.48;;;;;;;22.40;53.16;101627.03;5003876;28;20494;-69
2023/08/05 00:13:34;;;;;;;4.57;1.50;;;;;;;22.38;53.54;101623.66;5003608;28;20049;-68
2023/08/05 00:15:59;;;;;;;3.70;1.65;;;;;;;22.38;53.03;101624.50;5003827;28;20117;-69
2023/08/05 00:18:25;;;;;;;4.18;1.60;;;;;;;22.37;52.97;101620.16;5003609;28;20112;-68
2023/08/05 00:20:50;;;;;;;4.20;1.20;;;;;;;22.38;53.35;101618.34;5002891;28;20057;-68
2023/08/05 00:23:15;;;;;;;2.83;1.45;;;;;;;22.37;52.98;101619.34;5003394;28;20034;-69
2023/08/05 00:25:41;;;;;;;3.72;1.40;;;;;;;22.36;53.36;101613.16;5003115;28;20087;-72
2023/08/05 00:28:06;;;;;;;2.45;1.50;;;;;;;22.36;53.47;101615.81;5002992;28;20375;-68
2023/08/05 00:30:31;;;;;;;3.45;1.60;;;;;;;22.36;53.01;101615.81;5003779;28;20096;-72
2023/08/05 00:32:56;;;;;;;4.80;1.30;;;;;;;22.35;53.31;101614.16;5002759;28;20038;-68
2023/08/05 00:35:23;;;;;;;4.07;1.60;;;;;;;22.35;53.13;101610.63;5003591;28;20054;-71
2023/08/05 00:37:48;;;;;;;2.55;1.20;;;;;;;22.35;53.50;101610.63;5017819;28;20030;-69
2023/08/05 00:40:13;;;;;;;3.35;1.52;;;;;;;22.34;53.23;101608.97;5000488;28;20488;-72
2023/08/05 00:42:38;;;;;;;4.00;1.40;;;;;;;22.34;52.97;101611.63;5003255;28;20034;-70
2023/08/05 00:45:04;;;;;;;2.90;1.45;;;;;;;22.34;53.09;101611.63;5003816;28;20036;-72
2023/08/05 00:47:29;;;;;;;4.10;1.50;;;;;;;22.34;53.43;101607.16;5002448;28;20030;-69
2023/08/05 00:49:58;;;;;;;3.33;1.45;;;;;;;22.32;53.25;101606.44;5003148;28;20048;-70
2023/08/05 00:52:24;;;;;;;3.42;1.67;;;;;;;22.32;53.33;101600.28;5003242;28;20073;-72
2023/08/05 00:54:50;;;;;;;4.05;1.48;;;;;;;22.32;53.23;101600.28;5001425;28;20045;-70
2023/08/05 00:57:19;;;;;;;4.25;1.67;;;;;;;22.31;53.08;101598.63;5002997;28;20118;-72
2023/08/05 00:59:45;;;;;;;4.00;1.70;;;;;;;22.32;53.11;101592.31;5002514;28;20036;-73
2023/08/05 01:02:10;;;;;;;3.35;1.48;;;;;;;22.29;52.93;101590.75;5001920;28;20050;-69
2023/08/05 01:04:35;;;;;;;3.72;1.45;;;;;;;22.29;53.14;101590.75;5002903;28;20115;-70
2023/08/05 01:07:01;;;;;;;5.10;1.70;;;;;;;22.31;53.34;101588.81;5002680;28;20053;-69
2023/08/05 01:09:27;;;;;;;3.80;1.60;;;;;;;22.29;53.26;101593.41;5001998;28;20095;-72
2023/08/05 01:11:53;;;;;;;3.65;1.60;;;;;;;22.28;52.94;101587.25;5002816;28;20121;-69
2023/08/05 01:14:18;;;;;;;3.42;1.67;;;;;;;22.29;53.29;101580.13;5002771;28;20146;-69
2023/08/05 01:16:44;;;;;;;4.38;1.63;;;;;;;22.28;53.32;101576.63;5001814;28;20065;-68
2023/08/05 01:19:19;;;;;;;4.70;1.60;;;;;;;22.25;53.15;101573.41;5002437;28;20964;-69
2023/08/05 01:22:27;;;;;;;3.45;1.90;;;;;;;22.27;53.41;101579.41;5000771;28;20030;-68
2023/08/05 01:25:02;;;;;;;3.42;1.50;;;;;;;22.27;52.94;101572.31;5017416;28;20092;-69
2023/08/05 01:27:29;;;;;;;4.13;1.52;;;;;;;22.27;53.10;101572.31;5002520;28;20033;-69
2023/08/05 01:29:55;;;;;;;2.83;1.42;;;;;;;22.27;52.94;101572.31;5001561;28;20048;-71
2023/08/05 01:32:22;;;;;;;4.35;1.60;;;;;;;22.26;53.23;101575.91;5016916;28;20037;-69
2023/08/05 01:34:48;;;;;;;2.55;1.45;;;;;;;22.26;53.05;101575.91;5001919;28;20029;-69
2023/08/05 01:37:13;;;;;;;3.95;1.80;;;;;;;22.26;53.24;101573.25;5001765;28;20036;-70
2023/08/05 01:39:38;;;;;;;3.53;1.60;;;;;;;22.25;53.03;101571.56;5001722;28;20399;-71
2023/08/05 01:42:04;;;;;;;3.90;1.88;;;;;;;22.25;52.91;101573.41;5001946;28;20456;-69
2023/08/05 01:44:29;;;;;;;4.20;1.80;;;;;;;22.25;53.15;101571.56;5001356;28;20149;-69
2023/08/05 01:46:55;;;;;;;2.83;1.35;;;;;;;22.25;52.79;101570.75;5001882;28;20029;-72
2023/08/05 01:49:20;;;;;;;3.13;1.67;;;;;;;22.24;52.95;101569.91;5002146;28;20048;-69
2023/08/05 01:51:45;;;;;;;3.42;1.80;;;;;;;22.24;52.73;101574.41;5000399;28;20038;-71
2023/08/05 01:54:10;;;;;;;5.90;1.85;;;;;;;22.24;52.97;101577.88;5001950;28;20037;-69
2023/08/05 01:56:36;;;;;;;2.87;1.60;;;;;;;22.23;53.04;101573.53;5002042;28;20037;-70
2023/08/05 01:59:01;;;;;;;4.07;1.80;;;;;;;22.23;53.06;101575.34;5001222;28;20723;-69
2023/08/05 02:01:49;;;;;;;3.90;1.90;;;;;;;22.22;53.24;101568.34;5000462;28;20116;-70
2023/08/05 02:04:14;;;;;;;3.65;1.83;;;;;;;22.22;52.78;101569.22;5001230;28;20038;-72
2023/08/05 02:06:40;;;;;;;3.38;1.75;;;;;;;22.22;52.73;101578.97;5001451;28;20111;-68
2023/08/05 02:09:06;;;;;;;4.05;1.90;;;;;;;22.22;53.25;101578.97;5001940;28;20532;-69
2023/08/05 02:11:32;;;;;;;3.20;1.85;;;;;;;22.21;52.71;101575.50;5000839;28;20046;-73
2023/08/05 02:13:57;;;;;;;4.32;1.73;;;;;;;22.19;53.16;101569.47;4999841;28;20402;-72
2023/08/05 02:16:22;;;;;;;3.60;1.70;;;;;;;22.20;52.65;101573.81;5001768;28;20083;-68
2023/08/05 02:18:51;;;;;;;4.03;1.90;;;;;;;22.19;52.95;101571.28;5000938;28;20531;-71
2023/08/05 02:21:17;;;;;;;3.60;1.58;;;;;;;22.20;52.94;101567.66;5000865;28;20573;-72
2023/08/05 02:23:43;;;;;;;3.47;1.60;;;;;;;22.20;52.92;101572.97;5001567;28;20034;-69
2023/08/05 02:26:08;;;;;;;5.47;1.77;;;;;;;22.19;52.78;101572.13;4999291;28;20034;-72
2023/08/05 02:28:33;;;;;;;4.18;1.92;;;;;;;22.19;52.67;101564.19;5015809;28;20038;-69
2023/08/05 02:30:59;;;;;;;5.05;1.98;;;;;;;22.19;52.63;101566.81;5001106;28;20037;-70
2023/08/05 02:33:24;;;;;;;3.70;1.88;;;;;;;22.19;52.56;101565.97;5000757;28;20042;-68
2023/08/05 02:35:56;;;;;;;4.72;2.70;;;;;;;22.17;52.64;101557.31;5001072;28;20840;-70
2023/08/05 02:38:21;;;;;;;3.72;1.80;;;;;;;22.18;52.63;101556.34;5001509;28;20028;-68
2023/08/05 02:40:46;;;;;;;3.55;1.90;;;;;;;22.17;52.37;101544.03;5000634;28;20030;-71
2023/08/05 02:43:12;;;;;;;6.43;1.80;;;;;;;22.17;52.80;101544.88;5016073;28;20022;-68
2023/08/05 02:45:37;;;;;;;3.70;1.73;;;;;;;22.17;52.48;101549.34;5001112;28;20326;-72
2023/08/05 02:48:03;;;;;;;3.67;1.70;;;;;;;22.16;52.50;101542.34;5000642;28;20271;-67
2023/08/05 02:50:28;;;;;;;4.43;1.80;;;;;;;22.16;52.34;101548.50;5001200;28;20030;-68
2023/08/05 02:52:53;;;;;;;3.42;1.90;;;;;;;22.16;52.42;101542.34;5000709;28;20033;-69
2023/08/05 02:55:18;;;;;;;4.38;1.90;;;;;;;22.16;52.71;101545.00;4999062;28;20030;-69
2023/08/05 02:57:44;;;;;;;3.40;1.70;;;;;;;22.16;52.14;101535.25;5000514;28;20022;-72
2023/08/05 03:00:10;;;;;;;3.35;1.70;;;;;;;22.16;52.23;101543.19;5001064;28;20341;-69
2023/08/05 03:02:35;;;;;;;5.18;1.95;;;;;;;22.15;52.48;101540.69;5000055;28;20057;-69
2023/08/05 03:05:00;;;;;;;4.60;1.73;;;;;;;22.15;52.66;101548.66;5000423;28;20049;-69
2023/08/05 03:07:26;;;;;;;4.13;1.92;;;;;;;22.13;52.57;101538.16;5001011;28;20037;-69
2023/08/05 03:09:51;;;;;;;3.67;1.80;;;;;;;22.15;52.25;101535.38;5000219;28;20560;-70
2023/08/05 03:12:16;;;;;;;4.25;2.05;;;;;;;22.14;51.97;101521.25;5000540;28;20041;-72
2023/08/05 03:14:42;;;;;;;5.60;2.13;;;;;;;22.13;52.17;101516.06;5000112;28;20029;-70
2023/08/05 03:17:07;;;;;;;4.28;2.10;;;;;;;22.13;52.30;101514.28;5000827;28;20505;-73
2023/08/05 03:19:32;;;;;;;4.20;1.80;;;;;;;22.13;52.33;101518.72;5000806;28;20421;-69
2023/08/05 03:21:58;;;;;;;4.43;1.80;;;;;;;22.12;52.61;101514.41;4999738;28;20072;-71
2023/08/05 03:24:23;;;;;;;5.22;1.98;;;;;;;22.13;52.54;101508.09;4999254;28;20184;-73
2023/08/05 03:26:48;;;;;;;5.05;2.22;;;;;;;22.12;52.41;101514.41;5000222;28;20240;-70
2023/08/05 03:29:14;;;;;;;3.17;1.70;;;;;;;22.10;52.21;101507.41;5000548;28;20044;-74
2023/08/05 03:31:39;;;;;;;5.18;2.10;;;;;;;22.10;52.29;101499.44;5000194;28;20033;-70
2023/08/05 03:34:05;;;;;;;4.53;2.00;;;;;;;22.12;52.29;101515.22;5001067;28;20030;-74
2023/08/05 03:36:30;;;;;;;4.28;1.88;;;;;;;22.12;52.42;101509.09;4999887;28;20026;-71
2023/08/05 03:38:56;;;;;;;4.63;2.00;;;;;;;22.10;52.54;101510.06;5000716;28;20038;-71
2023/08/05 03:41:22;;;;;;;4.70;2.13;;;;;;;22.09;52.15;101502.22;5000444;28;20450;-71
2023/08/05 03:43:47;;;;;;;3.70;1.65;;;;;;;22.09;52.22;101500.41;4999359;28;20038;-70
2023/08/05 03:46:12;;;;;;;4.38;2.10;;;;;;;22.08;51.92;101484.66;5000635;28;20367;-69
2023/08/05 03:48:38;;;;;;;3.10;1.88;;;;;;;22.08;52.07;101482.81;5014976;28;20394;-70
2023/08/05 03:51:03;;;;;;;3.50;1.90;;;;;;;22.09;52.11;101481.81;5000006;28;20467;-70
2023/08/05 03:53:28;;;;;;;3.60;1.98;;;;;;;22.08;52.50;101488.13;4999969;28;20080;-68
2023/08/05 03:55:54;;;;;;;3.97;2.05;;;;;;;22.08;52.02;101484.66;5000464;28;20045;-69
2023/08/05 03:58:19;;;;;;;3.35;1.85;;;;;;;22.07;51.89;101478.47;4999674;28;20033;-70
2023/08/05 04:00:45;;;;;;;3.85;1.83;;;;;;;22.07;52.13;101470.50;5000046;28;20491;-71
2023/08/05 04:03:11;;;;;;;3.63;1.80;;;;;;;22.06;52.15;101463.53;4999926;28;20419;-72
2023/08/05 04:05:36;;;;;;;4.03;2.00;;;;;;;22.06;51.91;101470.66;4999607;28;20538;-74
2023/08/05 04:08:02;;;;;;;4.75;2.10;;;;;;;22.05;52.30;101467.16;5000290;28;20069;-69
2023/08/05 04:10:27;;;;;;;3.83;2.22;;;;;;;22.06;52.14;101468.00;5000488;28;20535;-68
2023/08/05 04:12:52;;;;;;;3.55;1.92;;;;;;;22.05;51.97;101464.50;4999371;28;20041;-70
2023/08/05 04:15:19;;;;;;;4.72;1.90;;;;;;;22.05;52.11;101469.00;5003860;28;20056;-69
2023/08/05 04:17:47;;;;;;;4.10;2.20;;;;;;;22.04;52.00;101465.47;5003060;28;20040;-69
2023/08/05 04:20:13;;;;;;;3.75;1.98;;;;;;;22.04;51.76;101476.09;5003544;28;20041;-72
2023/08/05 04:22:39;;;;;;;4.00;1.98;;;;;;;22.04;52.33;101470.78;5003759;28;20038;-73
2023/08/05 04:25:05;;;;;;;3.72;2.10;;;;;;;22.03;52.00;101444.38;5002952;28;20033;-70
2023/08/05 04:27:31;;;;;;;3.53;1.80;;;;;;;22.04;52.03;101436.28;5002817;28;20033;-69
2023/08/05 04:29:58;;;;;;;4.28;2.03;;;;;;;22.04;52.09;101435.44;5003718;28;20022;-68
2023/08/05 04:32:23;;;;;;;4.68;2.03;;;;;;;22.03;52.30;101429.31;5002238;28;20029;-68
2023/08/05 04:34:49;;;;;;;3.65;2.05;;;;;;;22.03;52.20;101428.44;5003518;28;21466;-69
2023/08/05 04:37:22;;;;;;;3.97;2.17;;;;;;;22.02;51.88;101434.75;5003214;28;20093;-69
2023/08/05 04:39:48;;;;;;;4.97;2.20;;;;;;;22.03;51.91;101433.75;5000120;28;20034;-72
2023/08/05 04:42:14;;;;;;;4.32;2.22;;;;;;;22.01;52.09;101425.94;5003426;28;20091;-70
2023/08/05 04:44:40;;;;;;;5.20;2.17;;;;;;;22.01;51.85;101420.63;5002760;28;20042;-69
2023/08/05 04:47:07;;;;;;;3.90;2.00;;;;;;;22.01;52.28;101407.34;5002524;28;20061;-70
2023/08/05 04:49:32;;;;;;;3.78;2.10;;;;;;;22.00;52.12;101411.00;5001819;28;20034;-69
2023/08/05 04:51:58;;;;;;;4.00;2.00;;;;;;;22.01;51.74;101417.16;5002909;28;20405;-69
2023/08/05 04:54:23;;;;;;;4.43;2.17;;;;;;;22.02;51.91;101419.66;5002413;28;20029;-70
2023/08/05 04:56:48;;;;;;;4.72;2.25;;;;;;;22.01;51.86;101415.31;5002788;28;20033;-69
2023/08/05 04:59:13;;;;;;;3.83;1.85;;;;;;;22.00;51.95;101413.66;5000449;28;20030;-70
2023/08/05 05:01:39;;;;;;;3.45;2.10;;;;;;;22.01;52.01;101414.50;5001537;28;20093;-69
2023/08/05 05:04:04;;;;;;;5.20;2.33;;;;;;;22.00;52.17;101418.97;5003006;28;20030;-70
2023/08/05 05:06:29;;;;;;;3.70;2.00;;;;;;;22.00;52.20;101424.28;5003217;28;20026;-69
2023/08/05 05:08:54;;;;;;;3.28;1.75;;;;;;;22.00;52.29;101426.94;5001665;28;20046;-69
2023/08/05 05:11:20;;;;;;;4.68;1.98;;;;;;;21.99;52.32;101422.59;5003266;28;20053;-69
2023/08/05 05:13:50;;;;;;;4.40;2.00;;;;;;;22.00;52.13;101415.44;5002719;28;20033;-69
2023/08/05 05:16:17;;;;;;;4.93;1.90;;;;;;;21.98;51.97;101412.09;5001951;28;20577;-69
2023/08/05 05:18:43;;;;;;;3.25;1.92;;;;;;;21.99;52.06;101411.16;5002546;28;20033;-69
2023/08/05 05:21:08;;;;;;;4.82;1.98;;;;;;;21.99;52.52;101411.16;5001741;28;20073;-71
2023/08/05 05:23:33;;;;;;;3.22;1.92;;;;;;;21.99;52.41;101411.97;5002538;28;20066;-73
2023/08/05 05:25:59;;;;;;;3.90;2.10;;;;;;;21.98;52.15;101412.09;5001312;28;20152;-70
2023/08/05 05:28:24;;;;;;;4.20;2.00;;;;;;;21.98;51.80;101404.97;5001791;28;20303;-72
2023/08/05 05:30:49;;;;;;;3.55;2.00;;;;;;;21.97;51.99;101400.66;5002543;28;20038;-69
2023/08/05 05:33:14;;;;;;;5.00;2.10;;;;;;;21.98;51.97;101401.50;5002125;28;20065;-70
2023/08/05 05:35:40;;;;;;;4.55;2.35;;;;;;;21.97;52.28;101403.31;5001737;28;20036;-69
2023/08/05 05:38:05;;;;;;;3.63;2.10;;;;;;;21.99;52.02;101403.19;5002142;28;20346;-71
2023/08/05 05:40:30;;;;;;;4.38;2.10;;;;;;;21.97;52.33;101398.00;5016884;28;20037;-69
2023/08/05 05:42:56;;;;;;;3.83;2.13;;;;;;;21.97;52.13;101398.00;5001075;28;20080;-70
2023/08/05 05:45:21;;;;;;;3.92;1.95;;;;;;;;;;5002334;28;20775;-70
2023/08/05 05:47:46;;;;;;;4.05;2.03;;;;;;;21.98;52.14;101397.00;5001985;28;20572;-70
2023/08/05 05:50:12;;;;;;;5.60;2.30;;;;;;;21.97;52.40;101395.34;5001621;28;20084;-69
2023/08/05 05:52:40;;;;;;;3.55;2.10;;;;;;;21.96;52.61;101392.84;5000173;28;20060;-68
2023/08/05 05:55:07;;;;;;;4.78;2.22;;;;;;;21.96;52.51;101398.97;5000527;28;20096;-70
2023/08/05 05:57:33;;;;;;;4.60;2.00;;;;;;;21.95;52.36;101391.97;5001743;28;20045;-69
2023/08/05 05:59:58;;;;;;;4.32;2.22;;;;;;;21.96;52.30;101388.34;5001483;28;20026;-74
2023/08/05 06:02:23;;;;;;;4.88;2.30;;;;;;;21.95;52.32;101383.19;5001981;28;20064;-69
2023/08/05 06:04:50;;;;;;;4.37;2.20;;;;;;;21.95;52.45;101381.38;4999714;28;20709;-72
2023/08/05 06:07:15;;;;;;;3.83;2.42;;;;;;;21.96;52.22;101383.06;5001523;28;20260;-71
2023/08/05 06:09:40;;;;;;;5.23;2.20;;;;;;;21.96;52.74;101387.53;5016433;28;20040;-69
2023/08/05 06:12:09;;;;;;;4.28;2.13;;;;;;;21.95;52.42;101377.88;5001413;28;20263;-70
2023/08/05 06:14:36;;;;;;;4.32;2.30;;;;;;;21.96;52.63;101377.75;5001914;28;20172;-70
2023/08/05 06:17:03;;;;;;;4.55;2.03;;;;;;;21.96;52.79;101374.25;5001272;28;20058;-69
2023/08/05 06:19:28;;;;;;;3.55;1.90;;;;;;;21.96;52.74;101372.44;5000681;28;20117;-73
2023/08/05 06:21:53;;;;;;;5.68;1.83;;;;;;;21.96;52.92;101375.09;5000364;28;20909;-70
2023/08/05 06:24:18;;;;;;;4.05;1.90;;;;;;;21.96;52.72;101379.56;5001165;28;20478;-73
2023/08/05 06:26:44;;;;;;;4.60;1.90;;;;;;;21.97;52.55;101371.47;5000250;28;20080;-71
2023/08/05 06:29:09;;;;;;;4.07;2.00;;;;;;;21.95;52.69;101367.25;5001563;28;20034;-74
2023/08/05 06:31:34;;;;;;;4.50;2.13;;;;;;;21.95;52.75;101373.41;5000816;28;20056;-72
2023/08/05 06:34:00;;;;;;;5.97;2.03;;;;;;;21.98;52.93;101380.25;5001033;28;21344;-74
2023/08/05 06:36:25;;;;;;;4.70;1.90;;;;;;;21.98;53.03;101372.31;5001360;28;20026;-71
2023/08/05 06:38:50;;;;;;;3.65;1.60;;;;;;;21.97;52.94;101374.13;5000594;28;20263;-72
2023/08/05 06:41:15;;;;;;;4.43;1.70;;;;;;;21.99;53.25;101372.16;4999943;28;20038;-69
2023/08/05 06:43:41;;;;;;;3.75;1.70;;;;;;;21.98;53.43;101359.84;5001059;28;20255;-74
2023/08/05 06:46:06;;;;;;;3.92;1.73;;;;;;;21.99;53.32;101364.19;5000748;28;20038;-70
2023/08/05 06:48:31;;;;;;;4.18;1.70;;;;;;;22.00;53.40;101368.53;5001369;28;21018;-73
2023/08/05 06:50:57;;;;;;;3.60;1.80;;;;;;;21.99;53.48;101364.19;5000807;28;20038;-70
2023/08/05 06:53:23;;;;;;;4.57;2.00;;;;;;;21.99;53.16;101366.03;5000301;28;20040;-75
2023/08/05 06:56:00;;;;;;;3.38;1.70;;;;;;;21.98;53.44;101356.38;5001548;28;20030;-70
2023/08/05 06:58:25;;;;;;;3.35;1.80;;;;;;;;;;5001514;28;20053;-71
2023/08/05 07:00:52;;;;;;;5.10;2.23;;;;;;;21.98;53.67;101345.75;5000833;28;20157;-71
2023/08/05 07:03:17;;;;;;;4.03;1.80;;;;;;;21.99;53.67;101344.78;5001232;28;20050;-70
2023/08/05 07:05:42;;;;;;;4.00;1.70;;;;;;;22.00;54.02;101339.34;5001489;28;20053;-72
2023/08/05 07:08:08;;;;;;;3.30;1.83;;;;;;;22.00;53.94;101333.19;5000453;28;20069;-72
2023/08/05 07:10:33;;;;;;;3.60;1.73;;;;;;;22.00;54.00;101342.00;5000928;28;20483;-72
2023/08/05 07:13:01;;;;;;;5.90;2.17;;;;;;;22.01;54.00;101340.19;5000556;28;20037;-70
2023/08/05 07:15:27;;;;;;;4.65;1.73;;;;;;;22.00;54.07;101338.50;5000609;28;20041;-71
2023/08/05 07:17:52;;;;;;;4.55;1.70;;;;;;;21.97;54.02;101339.63;5000283;28;20038;-77
2023/08/05 07:20:18;;;;;;;5.77;1.87;;;;;;;21.98;54.30;101333.31;5001020;28;20103;-73
2023/08/05 07:22:43;;;;;;;6.28;2.00;;;;;;;22.01;54.39;101340.19;4999630;28;20275;-76
2023/08/05 07:25:08;;;;;;;4.60;2.00;;;;;;;22.01;54.25;101330.41;5001153;28;20037;-72
2023/08/05 07:27:34;;;;;;;3.95;1.67;;;;;;;22.03;54.14;101325.81;5015496;28;20033;-76
2023/08/05 07:29:59;;;;;;;3.93;1.80;;;;;;;22.03;54.54;101335.56;4999862;28;20479;-70
2023/08/05 07:32:24;;;;;;;4.13;1.80;;;;;;;22.03;54.60;101336.44;5000735;28;20279;-74
2023/08/05 07:34:53;;;;;;;6.15;1.85;;;;;;;22.04;54.79;101339.91;4999136;28;20080;-71
2023/08/05 07:37:19;;;;;;;6.43;1.90;;;;;;;22.04;54.58;101326.63;5001083;28;20036;-74
2023/08/05 07:39:48;;;;;;;4.00;1.50;;;;;;;22.05;54.67;101330.97;4999850;28;20457;-71
2023/08/05 07:42:18;;;;;;;4.68;1.70;;;;;;;22.05;54.86;101326.50;5000189;28;20149;-75
2023/08/05 07:44:46;;;;;;;6.22;1.70;;;;;;;22.06;54.75;101320.22;5000918;28;20168;-72
2023/08/05 07:47:12;;;;;;;3.53;1.50;;;;;;;22.06;54.93;101314.91;5001207;28;20497;-69
2023/08/05 07:49:37;;;;;;;7.53;1.77;;;;;;;22.06;54.63;101312.25;5002190;28;20553;-71
2023/08/05 07:52:09;;;;;;;4.82;1.60;;;;;;;22.08;54.61;101314.78;5004592;28;20517;-71
2023/08/05 07:54:35;;;;;;;4.43;1.70;;;;;;;22.07;54.99;101307.78;5004507;28;20030;-73
2023/08/05 07:57:00;;;;;;;4.65;2.05;;;;;;;22.05;55.23;101310.56;5002219;28;20694;-71
2023/08/05 07:59:27;;;;;;;4.80;2.20;;;;;;;22.07;54.98;101299.81;5004283;28;20045;-75
2023/08/05 08:01:54;;;;;;;6.35;2.58;;;;;;;22.08;55.34;101286.41;4998069;28;20157;-70
2023/08/05 08:04:20;;;;;;;7.43;2.58;;;;;;;22.10;55.78;101288.94;5002805;28;20433;-69
2023/08/05 08:06:47;;;;;;;7.38;2.70;;;;;;;22.07;55.95;101281.25;5002991;28;20053;-68
2023/08/05 08:09:13;;;;;;;5.20;3.00;;;;;;;22.07;56.08;101279.41;5003650;28;20034;-68
2023/08/05 08:11:39;;;;;;;5.72;2.83;;;;;;;22.04;56.34;101270.91;5000976;28;20053;-69
2023/08/05 08:14:04;;;;;;;4.40;2.72;;;;;;;22.05;55.86;101278.72;5002533;28;20084;-72
2023/08/05 08:16:31;;;;;;;5.00;2.70;;;;;;;22.06;56.00;101277.75;5002137;28;20029;-69
2023/08/05 08:18:56;;;;;;;5.88;2.90;;;;;;;22.07;56.32;101274.09;5002442;28;20066;-70
2023/08/05 08:21:22;;;;;;;6.45;2.55;;;;;;;22.07;56.27;101275.94;5002894;28;20038;-77
2023/08/05 08:23:47;;;;;;;5.18;2.67;;;;;;;22.10;55.66;101265.88;5002996;28;20038;-79
2023/08/05 08:26:12;;;;;;;5.13;2.92;;;;;;;22.12;55.90;101264.91;5003641;28;20037;-70
2023/08/05 08:28:38;;;;;;;5.18;2.90;;;;;;;22.14;55.74;101262.94;5003135;28;20034;-78
2023/08/05 08:31:03;;;;;;;5.25;2.83;;;;;;;22.13;55.92;101261.25;5002856;28;20095;-70
2023/08/05 08:33:29;;;;;;;7.00;2.85;;;;;;;22.10;55.61;101262.38;5002963;28;21053;-70
2023/08/05 08:35:54;;;;;;;7.65;2.92;;;;;;;22.06;55.60;101251.22;5001078;28;20045;-68
2023/08/05 08:38:20;;;;;;;6.65;2.80;;;;;;;22.08;56.00;101246.59;5001443;28;20560;-69
2023/08/05 08:40:51;;;;;;;6.47;2.80;;;;;;;22.06;55.83;101237.09;5000266;28;20034;-69
2023/08/05 08:43:17;;;;;;;5.03;2.60;;;;;;;22.06;56.24;101232.63;5001935;28;20026;-72
2023/08/05 08:45:44;;;;;;;5.57;2.80;;;;;;;22.07;55.88;101228.16;5001192;28;20041;-69
2023/08/05 08:48:10;;;;;;;5.60;2.78;;;;;;;22.08;55.70;101230.66;5002477;28;20033;-72
2023/08/05 08:50:37;;;;;;;5.10;3.03;;;;;;;22.06;55.51;101222.03;5002627;28;20029;-70
2023/08/05 08:53:06;;;;;;;4.97;2.38;;;;;;;22.08;55.91;101225.38;5001403;28;20463;-72
2023/08/05 08:55:31;;;;;;;4.30;2.75;;;;;;;22.07;55.95;101213.06;5002315;28;20040;-69
2023/08/05 08:57:57;;;;;;;5.90;3.10;;;;;;;22.08;55.58;101214.75;5001806;28;20026;-68
2023/08/05 09:00:22;;;;;;;7.00;2.50;;;;;;;22.10;55.60;101222.56;5016230;28;20076;-69
2023/08/05 09:02:48;;;;;;;4.20;2.38;;;;;;;22.10;55.79;101210.13;5016432;28;20050;-77
2023/08/05 09:05:14;;;;;;;5.45;2.67;;;;;;;22.09;55.23;101204.97;5003344;28;20490;-70
2023/08/05 09:07:39;;;;;;;4.53;2.55;;;;;;;22.10;55.76;101202.16;5001756;28;20052;-74
2023/08/05 09:10:05;;;;;;;4.20;2.55;;;;;;;22.07;55.42;101193.66;5002299;28;20131;-71
2023/08/05 09:12:31;;;;;;;4.88;2.70;;;;;;;22.08;55.54;101203.31;5002274;28;20059;-68
2023/08/05 09:14:57;;;;;;;7.43;3.10;;;;;;;22.06;55.45;101191.97;5001000;28;20464;-69
2023/08/05 09:17:22;;;;;;;4.80;2.60;;;;;;;22.05;55.96;101185.00;5002118;28;20132;-68
2023/08/05 09:19:48;;;;;;;7.97;2.50;;;;;;;22.06;55.84;101186.66;5001730;28;20080;-66
2023/08/05 09:22:13;;;;;;;4.72;2.60;;;;;;;22.08;55.52;101182.06;5001368;28;20467;-76
2023/08/05 09:24:38;;;;;;;8.88;2.50;;;;;;;22.06;55.71;101174.25;5000914;28;20096;-69
2023/08/05 09:27:04;;;;;;;4.93;2.55;;;;;;;22.06;55.80;101176.06;5001556;28;20030;-73
2023/08/05 09:29:29;;;;;;;4.57;2.70;;;;;;;22.07;55.52;101169.78;5000984;28;20388;-71
2023/08/05 09:32:00;;;;;;;4.85;2.83;;;;;;;22.07;55.90;101161.81;5001324;28;20033;-70
2023/08/05 09:34:36;;;;;;;4.82;2.47;;;;;;;22.05;55.63;101166.44;4999743;28;20324;-69
2023/08/05 09:37:02;;;;;;;4.72;2.63;;;;;;;22.09;55.35;101162.50;5000087;28;20649;-71
2023/08/05 09:39:47;;;;;;;5.22;2.50;;;;;;;22.08;55.75;101158.19;5000978;28;20099;-71
2023/08/05 09:42:20;;;;;;;6.38;2.60;;;;;;;22.08;55.63;101156.34;5000705;28;20100;-70
2023/08/05 09:44:47;;;;;;;6.75;3.28;;;;;;;22.08;55.31;101152.88;5001609;28;20184;-71
2023/08/05 09:47:17;;;;;;;6.25;2.92;;;;;;;22.07;55.76;101153.84;5000921;28;20423;-74
2023/08/05 09:49:47;;;;;;;6.72;2.50;;;;;;;22.06;55.29;101152.16;5000298;28;20049;-71
2023/08/05 09:52:17;;;;;;;4.20;2.47;;;;;;;22.07;55.62;101140.56;5000972;28;20064;-74
2023/08/05 09:54:50;;;;;;;4.88;2.72;;;;;;;22.06;55.76;101129.13;5000272;28;20140;-71
2023/08/05 09:57:16;;;;;;;5.57;2.47;;;;;;;22.09;55.82;101128.00;5000905;28;20041;-72
2023/08/05 09:59:42;;;;;;;6.47;2.83;;;;;;;22.16;55.13;101133.56;4999214;28;20882;-70
2023/08/05 10:02:11;;;;;;;5.60;2.50;;;;;;;22.15;55.30;101127.41;4999680;28;20061;-69
2023/08/05 10:04:41;;;;;;;5.57;2.60;;;;;;;22.16;55.19;101115.84;5000461;28;20037;-70
2023/08/05 10:07:08;;;;;;;4.85;2.60;;;;;;;22.15;55.08;101129.25;5001274;28;20121;-70
2023/08/05 10:09:33;;;;;;;6.38;3.00;;;;;;;22.16;55.62;101117.63;5000496;28;20066;-73
2023/08/05 10:12:01;;;;;;;5.45;2.28;;;;;;;22.14;55.47;101116.94;5000565;28;20120;-71
2023/08/05 10:14:28;;;;;;;5.25;2.58;;;;;;;22.13;55.75;101116.13;5000764;28;20030;-72
2023/08/05 10:16:53;;;;;;;5.60;2.75;;;;;;;22.12;55.39;101114.44;4999859;28;20045;-74
2023/08/05 10:19:30;;;;;;;5.57;3.00;;;;;;;22.12;55.63;101117.09;5001197;28;20045;-73
2023/08/05 10:22:09;;;;;;;7.72;2.95;;;;;;;22.14;55.97;101117.78;5000717;28;20033;-73
2023/08/05 10:24:57;;;;;;;6.32;2.85;;;;;;;22.16;55.80;101112.31;5003679;28;20026;-68
2023/08/05 10:27:44;;;;;;;10.88;3.55;;;;;;;22.19;55.73;101104.94;4999941;28;20026;-75
2023/08/05 10:30:10;;;;;;;5.00;2.30;;;;;;;22.20;55.81;101109.22;5000982;28;20034;-79
2023/08/05 10:32:50;;;;;;;10.25;3.03;;;;;;;22.17;56.17;101100.72;5000753;28;20041;-69
2023/08/05 10:35:29;;;;;;;5.93;2.85;;;;;;;22.17;56.04;101101.56;5002509;28;20080;-73
2023/08/05 10:38:21;;;;;;;4.88;2.70;;;;;;;22.34;55.36;101092.03;4999330;28;20410;-74
2023/08/05 10:41:00;;;;;;;9.27;2.88;;;;;;;22.42;55.21;101091.31;4998838;28;20041;-71
2023/08/05 10:43:30;;;;;;;4.63;2.67;;;;;;;22.47;55.21;101086.38;5000685;28;20716;-70
2023/08/05 10:45:57;;;;;;;6.90;3.00;;;;;;;22.49;54.80;101088.88;5000866;28;20026;-73
2023/08/05 10:48:30;;;;;;;4.70;2.95;;;;;;;22.46;54.79;101087.34;5001731;28;20093;-69
2023/08/05 10:50:56;;;;;;;7.03;3.28;;;;;;;22.47;55.10;101083.72;5001364;28;20034;-75
2023/08/05 10:53:22;;;;;;;6.75;2.90;;;;;;;22.48;54.99;101084.56;5001249;28;20052;-71
2023/08/05 10:55:56;;;;;;;8.57;3.10;;;;;;;22.45;55.61;101089.19;5001317;28;20029;-76
2023/08/05 10:58:23;;;;;;;9.68;3.65;;;;;;;22.46;55.47;101079.38;5002546;28;20044;-69
2023/08/05 11:01:00;;;;;;;6.68;3.47;;;;;;;22.41;55.69;101076.34;4997633;28;20076;-73
2023/08/05 11:03:44;;;;;;;7.20;3.40;;;;;;;22.36;55.84;101081.28;4998426;28;20061;-73
2023/08/05 11:06:11;;;;;;;7.90;3.70;;;;;;;22.31;56.07;101092.31;4999734;28;20116;-72
2023/08/05 11:08:39;;;;;;;10.43;3.80;;;;;;;22.24;56.06;101077.94;5014873;28;20084;-77
2023/08/05 11:11:06;;;;;;;9.55;3.45;;;;;;;22.21;56.09;101076.41;4999136;28;20046;-71
2023/08/05 11:13:33;;;;;;;6.97;3.55;;;;;;;22.19;56.13;101075.72;4999047;28;20398;-70
2023/08/05 11:16:08;;;;;;;7.63;3.55;;;;;;;22.17;56.16;101071.53;5000187;28;20041;-72
2023/08/05 11:18:34;;;;;;;7.00;3.30;;;;;;;22.16;56.25;101073.38;5000312;28;20041;-74
2023/08/05 11:21:02;;;;;;;7.85;3.78;;;;;;;22.15;56.44;101066.38;4999914;28;20040;-70
2023/08/05 11:23:28;;;;;;;7.75;3.13;;;;;;;22.15;55.65;101057.59;5001255;28;20386;-70
2023/08/05 11:25:53;;;;;;;6.35;3.38;;;;;;;22.13;56.30;101048.91;5004291;28;20029;-70